Time;durP1;ratioP1;P1;durP2;ratioP2;P2;SDS_P1;SDS_P2;PMS_P1;PMS_P2;Temp;Humidity;BMP_temperature;BMP_pressure;BME280_temperature;BME280_humidity;BME280_pressure;Samples;Min_cycle;Max_cycle;Signal;HPM_P1;HPM_P2
2023/10/14 00:01:09;;;;;;;4.82;3.20;;;16.00;55.30;;;;;;5089154;28;20069;-62
2023/10/14 00:03:35;;;;;;;6.30;3.42;;;16.00;55.40;;;;;;5089659;28;20819;-61
2023/10/14 00:06:08;;;;;;;9.57;3.17;;;16.10;55.50;;;;;;5088684;28;20099;-61
2023/10/14 00:08:35;;;;;;;4.60;3.35;;;16.10;55.60;;;;;;5088947;28;20065;-62
2023/10/14 00:11:04;;;;;;;8.43;3.30;;;16.10;55.40;;;;;;5090866;28;20019;-62
2023/10/14 00:13:40;;;;;;;6.90;2.97;;;16.10;55.40;;;;;;5092244;28;20028;-62
2023/10/14 00:16:13;;;;;;;7.28;3.50;;;16.10;55.40;;;;;;5090316;28;20036;-62
2023/10/14 00:18:47;;;;;;;8.40;3.85;;;16.20;55.50;;;;;;5087195;28;20450;-62
2023/10/14 00:21:13;;;;;;;10.65;3.88;;;16.20;55.20;;;;;;5088144;28;20047;-61
2023/10/14 00:23:39;;;;;;;5.35;3.75;;;16.20;55.00;;;;;;5092044;28;20034;-62
2023/10/14 00:26:06;;;;;;;14.05;3.83;;;16.30;54.90;;;;;;5086200;28;20025;-62
2023/10/14 00:28:32;;;;;;;8.77;4.00;;;16.30;54.80;;;;;;5087471;28;20089;-60
2023/10/14 00:30:58;;;;;;;9.82;4.35;;;16.30;54.80;;;;;;5091230;28;20052;-62
2023/10/14 00:33:24;;;;;;;10.40;3.80;;;16.30;54.70;;;;;;5093308;28;20032;-62
2023/10/14 00:35:54;;;;;;;14.73;4.35;;;16.40;54.50;;;;;;5087993;28;20028;-62
2023/10/14 00:38:20;;;;;;;7.88;3.58;;;16.40;54.70;;;;;;5087738;28;20059;-62
2023/10/14 00:40:47;;;;;;;8.07;3.15;;;16.40;54.70;;;;;;5088891;28;20059;-62
2023/10/14 00:43:13;;;;;;;14.30;3.63;;;16.40;54.50;;;;;;5088101;28;20028;-62
2023/10/14 00:45:43;;;;;;;8.98;3.63;;;16.50;54.60;;;;;;4988598;28;21006;-61
2023/10/14 00:48:14;;;;;;;11.20;3.55;;;16.50;54.50;;;;;;5092605;28;20024;-63
2023/10/14 00:50:41;;;;;;;7.30;3.53;;;16.50;54.60;;;;;;5089022;28;20031;-63
2023/10/14 00:53:08;;;;;;;8.40;3.65;;;16.60;54.70;;;;;;5086807;28;20024;-61
2023/10/14 00:55:52;;;;;;;5.63;3.20;;;16.60;54.80;;;;;;5082186;28;20073;-62
2023/10/14 00:58:21;;;;;;;5.43;3.40;;;16.60;54.70;;;;;;5085969;28;20069;-62
2023/10/14 01:00:59;;;;;;;6.28;3.40;;;16.70;54.50;;;;;;5095961;28;20028;-62
2023/10/14 01:03:26;;;;;;;11.35;3.33;;;16.70;54.90;;;;;;5088367;28;20485;-61
2023/10/14 01:06:00;;;;;;;7.32;3.53;;;16.70;54.70;;;;;;5090995;28;20043;-62
2023/10/14 01:08:26;;;;;;;9.73;3.42;;;16.80;55.00;;;;;;5087961;28;20040;-61
2023/10/14 01:10:52;;;;;;;7.18;3.33;;;16.80;54.80;;;;;;5089719;28;20553;-63
2023/10/14 01:13:24;;;;;;;8.70;3.80;;;16.80;55.00;;;;;;5082360;28;20077;-62
2023/10/14 01:16:12;;;;;;;9.73;3.33;;;16.80;55.20;;;;;;5086071;28;20024;-61
2023/10/14 01:18:38;;;;;;;7.63;3.22;;;16.90;55.10;;;;;;5089280;28;20469;-61
2023/10/14 01:21:04;;;;;;;5.63;3.28;;;16.90;55.20;;;;;;5087375;28;20502;-61
2023/10/14 01:23:29;;;;;;;8.18;3.45;;;16.90;55.30;;;;;;5087637;28;20028;-61
2023/10/14 01:25:57;;;;;;;7.03;3.33;;;16.90;55.40;;;;;;5074668;28;20051;-62
2023/10/14 01:28:32;;;;;;;10.10;3.55;;;16.90;55.50;;;;;;5086664;28;20032;-61
2023/10/14 01:33:55;;;;;;;7.50;3.42;;;17.00;56.10;;;;;;5085730;28;20459;-62
2023/10/14 01:36:32;;;;;;;12.00;3.67;;;17.00;55.50;;;;;;5085251;28;20023;-62
2023/10/14 01:39:04;;;;;;;7.38;4.55;;;17.00;55.50;;;;;;5087660;28;20020;-60
2023/10/14 01:41:30;;;;;;;6.88;3.35;;;17.00;55.50;;;;;;5085240;28;20073;-60
2023/10/14 01:44:09;;;;;;;5.88;3.70;;;17.00;55.40;;;;;;5089645;28;20028;-63
2023/10/14 01:46:39;;;;;;;10.27;3.35;;;17.00;55.50;;;;;;5089142;28;20031;-63
2023/10/14 01:49:16;;;;;;;6.45;2.97;;;17.00;55.40;;;;;;5096620;28;20059;-62
2023/10/14 01:51:41;;;;;;;6.35;3.70;;;17.10;55.50;;;;;;5085744;28;20020;-61
2023/10/14 01:54:10;;;;;;;8.55;3.60;;;17.00;55.40;;;;;;5091274;28;20026;-62
2023/10/14 01:56:37;;;;;;;8.40;3.25;;;17.10;55.60;;;;;;5081122;28;20021;-61
2023/10/14 01:59:03;;;;;;;6.03;2.90;;;17.10;55.70;;;;;;5088660;28;20028;-61
2023/10/14 02:01:34;;;;;;;8.75;3.40;;;17.10;55.80;;;;;;5072801;28;20588;-62
2023/10/14 02:03:59;;;;;;;5.68;3.67;;;17.20;56.00;;;;;;5086953;28;20028;-61
2023/10/14 02:06:26;;;;;;;6.50;3.38;;;17.20;56.40;;;;;;5086433;28;20016;-61
2023/10/14 02:08:53;;;;;;;5.65;3.72;;;17.20;56.50;;;;;;5091082;28;20134;-63
2023/10/14 02:11:35;;;;;;;7.22;3.63;;;17.30;56.80;;;;;;5085837;28;21328;-61
2023/10/14 02:14:08;;;;;;;5.97;3.83;;;17.40;57.10;;;;;;5084153;28;20020;-61
2023/10/14 02:16:42;;;;;;;8.98;3.58;;;17.60;56.70;;;;;;5088878;28;20489;-62
2023/10/14 02:21:43;;;;;;;5.47;3.30;;;17.90;56.50;;;;;;5084937;28;20093;-63
2023/10/14 02:24:12;;;;;;;9.23;3.55;;;18.00;56.20;;;;;;5085878;28;20032;-61
2023/10/14 02:26:41;;;;;;;4.75;3.42;;;18.10;56.00;;;;;;5084505;28;20040;-62
2023/10/14 02:29:08;;;;;;;6.18;3.42;;;18.30;55.90;;;;;;5084877;28;20040;-62
2023/10/14 02:31:37;;;;;;;9.52;3.88;;;18.50;55.70;;;;;;5088435;28;20420;-62
2023/10/14 02:34:07;;;;;;;7.25;3.28;;;18.60;55.60;;;;;;5087920;28;20556;-62
2023/10/14 02:36:50;;;;;;;8.57;4.20;;;18.70;55.30;;;;;;5087867;28;20099;-62
2023/10/14 02:39:28;;;;;;;9.05;3.50;;;18.80;55.30;;;;;;5086293;28;20024;-62
2023/10/14 02:42:06;;;;;;;7.70;3.17;;;19.00;55.20;;;;;;5082935;28;20028;-62
2023/10/14 02:44:44;;;;;;;8.48;3.33;;;19.10;54.90;;;;;;5083580;28;20115;-61
2023/10/14 02:47:10;;;;;;;10.18;4.00;;;19.20;54.70;;;;;;5092034;28;20056;-62
2023/10/14 02:49:39;;;;;;;13.93;3.55;;;19.20;54.50;;;;;;5085071;28;20512;-62
2023/10/14 02:52:18;;;;;;;7.50;3.63;;;19.30;54.50;;;;;;5087150;28;20028;-62
2023/10/14 02:54:53;;;;;;;12.50;3.80;;;19.40;54.40;;;;;;5088574;28;20034;-61
2023/10/14 02:57:26;;;;;;;8.68;3.38;;;19.40;54.30;;;;;;5086157;28;20024;-61
2023/10/14 02:59:55;;;;;;;5.35;3.38;;;19.50;54.10;;;;;;5087430;28;20024;-62
2023/10/14 03:07:33;;;;;;;7.22;3.50;;;19.60;54.20;;;;;;5083136;28;20444;-61
2023/10/14 03:10:11;;;;;;;6.53;3.38;;;19.70;54.10;;;;;;5087646;28;20032;-62
2023/10/14 03:12:40;;;;;;;4.72;3.03;;;19.70;53.90;;;;;;5091158;28;20050;-62
2023/10/14 03:15:19;;;;;;;6.40;3.60;;;19.80;53.90;;;;;;5084411;28;20016;-63
2023/10/14 03:17:53;;;;;;;10.30;3.67;;;19.80;53.80;;;;;;5091029;28;20035;-62
2023/10/14 03:23:22;;;;;;;6.70;3.40;;;19.90;53.70;;;;;;5089376;28;20651;-63
2023/10/14 03:25:53;;;;;;;8.83;3.00;;;19.90;53.80;;;;;;5085822;28;20075;-63
2023/10/14 03:28:23;;;;;;;6.93;3.60;;;19.90;53.70;;;;;;5091141;28;20491;-62
2023/10/14 03:30:58;;;;;;;5.38;2.97;;;19.90;53.70;;;;;;5090479;28;20048;-62
2023/10/14 03:33:27;;;;;;;5.93;3.53;;;19.90;53.70;;;;;;5089511;28;20016;-62
2023/10/14 03:35:57;;;;;;;6.35;3.20;;;19.90;53.70;;;;;;5095262;28;20061;-62
2023/10/14 03:38:25;;;;;;;9.23;4.47;;;19.90;53.90;;;;;;5087821;28;20020;-61
2023/10/14 03:41:03;;;;;;;6.80;3.78;;;20.00;53.80;;;;;;5091140;28;20093;-61
2023/10/14 03:46:29;;;;;;;9.20;3.63;;;20.00;54.10;;;;;;4989156;28;20451;-60
2023/10/14 03:48:55;;;;;;;8.07;4.07;;;20.00;53.90;;;;;;5073344;28;20052;-62
2023/10/14 03:51:24;;;;;;;6.50;3.63;;;20.00;54.10;;;;;;5070377;28;20028;-62
2023/10/14 03:53:52;;;;;;;6.35;3.78;;;20.00;54.70;;;;;;5088559;28;20589;-62
2023/10/14 03:56:21;;;;;;;9.70;3.35;;;20.10;54.70;;;;;;5089676;28;20381;-62
2023/10/14 03:58:48;;;;;;;7.28;3.60;;;20.10;54.60;;;;;;5090224;28;20732;-62
2023/10/14 04:01:14;;;;;;;6.05;3.55;;;20.10;54.60;;;;;;5087863;28;20020;-63
2023/10/14 04:03:39;;;;;;;8.55;3.65;;;20.10;54.70;;;;;;5091960;28;20057;-62
2023/10/14 04:06:08;;;;;;;6.15;3.30;;;20.20;54.80;;;;;;5093219;28;20115;-62
2023/10/14 04:08:47;;;;;;;8.00;4.18;;;20.20;55.00;;;;;;5093502;28;20428;-62
2023/10/14 04:11:16;;;;;;;6.47;3.80;;;20.20;55.30;;;;;;5091710;28;20058;-62
2023/10/14 04:14:04;;;;;;;7.45;3.85;;;20.20;55.00;;;;;;5088067;28;20059;-61
2023/10/14 04:21:59;;;;;;;9.85;3.90;;;20.30;55.10;;;;;;5090679;28;20040;-61
2023/10/14 04:27:16;;;;;;;6.35;4.20;;;20.30;55.70;;;;;;5092468;28;20133;-61
2023/10/14 04:29:39;;;;;;;11.18;4.22;;;20.30;55.60;;;;;;5088790;28;20055;-61
2023/10/14 04:32:14;;;;;;;8.30;3.67;;;20.20;55.40;;;;;;5086639;28;20016;-62
2023/10/14 04:34:46;;;;;;;7.53;3.65;;;20.20;55.50;;;;;;5091427;28;20034;-62
2023/10/14 04:37:20;;;;;;;6.60;3.83;;;20.20;55.80;;;;;;5088025;28;20504;-60
2023/10/14 04:39:46;;;;;;;5.00;3.58;;;20.30;55.80;;;;;;5089539;28;20039;-61
2023/10/14 04:44:45;;;;;;;5.32;3.70;;;20.20;56.10;;;;;;5088665;28;20055;-62
2023/10/14 04:47:19;;;;;;;7.15;3.17;;;20.20;56.20;;;;;;4989360;28;20027;-62
2023/10/14 04:49:51;;;;;;;;;;;20.20;56.20;;;;;;5084250;28;20043;-61
2023/10/14 04:52:18;;;;;;;5.88;3.42;;;20.30;55.80;;;;;;5087087;28;20007;-63
2023/10/14 04:55:06;;;;;;;5.55;3.35;;;20.30;56.00;;;;;;5082774;28;20031;-62
2023/10/14 04:57:32;;;;;;;4.95;3.17;;;20.20;56.20;;;;;;5078371;28;20043;-61
2023/10/14 05:00:08;;;;;;;5.32;3.40;;;20.20;56.30;;;;;;5087187;28;20474;-62
2023/10/14 05:02:37;;;;;;;6.78;3.63;;;20.20;56.40;;;;;;5088501;28;20023;-61
2023/10/14 05:05:07;;;;;;;5.13;3.40;;;20.20;56.50;;;;;;5089810;28;20436;-62
2023/10/14 05:07:35;;;;;;;8.50;4.00;;;20.20;56.70;;;;;;5084762;28;20021;-63
2023/10/14 05:10:09;;;;;;;11.57;4.22;;;20.20;56.90;;;;;;5085050;28;20049;-62
2023/10/14 05:12:40;;;;;;;6.97;3.78;;;20.20;56.90;;;;;;5091161;28;20515;-62
2023/10/14 05:15:19;;;;;;;6.90;4.05;;;20.20;57.00;;;;;;5079661;28;20356;-63
2023/10/14 05:18:03;;;;;;;7.70;3.55;;;20.20;57.10;;;;;;5081890;28;20044;-63
2023/10/14 05:20:54;;;;;;;4.00;3.60;;;20.10;57.10;;;;;;5087517;28;20019;-62
2023/10/14 05:23:19;;;;;;;7.88;3.40;;;20.10;57.10;;;;;;5083864;28;20043;-62
2023/10/14 05:25:50;;;;;;;9.40;3.50;;;20.10;57.20;;;;;;5088907;28;20051;-62
2023/10/14 05:28:16;;;;;;;6.18;4.00;;;20.10;57.20;;;;;;5084148;28;20032;-61
2023/10/14 05:30:47;;;;;;;11.43;3.83;;;20.10;57.40;;;;;;5090561;28;20367;-62
2023/10/14 05:33:14;;;;;;;6.35;3.95;;;20.10;57.30;;;;;;5086256;28;20020;-62
2023/10/14 05:35:43;;;;;;;9.60;4.65;;;20.10;57.40;;;;;;5085303;28;20112;-61
2023/10/14 05:38:14;;;;;;;10.02;4.60;;;20.00;57.50;;;;;;5084626;28;20024;-62
2023/10/14 05:40:40;;;;;;;14.07;4.30;;;20.00;57.40;;;;;;5090930;28;20024;-62
2023/10/14 05:43:07;;;;;;;9.38;4.05;;;20.10;57.60;;;;;;5087100;28;20031;-64
2023/10/14 05:45:36;;;;;;;9.65;4.00;;;20.10;57.80;;;;;;5090430;28;20753;-61
2023/10/14 05:48:09;;;;;;;9.20;3.70;;;20.10;58.00;;;;;;5088262;28;20072;-62
2023/10/14 05:50:35;;;;;;;10.30;3.75;;;20.30;58.00;;;;;;5083295;28;20439;-62
2023/10/14 05:53:01;;;;;;;13.48;3.90;;;20.30;57.80;;;;;;5093931;28;20055;-62
2023/10/14 05:55:31;;;;;;;12.93;4.05;;;20.40;57.80;;;;;;5085234;28;20035;-62
2023/10/14 05:58:00;;;;;;;8.68;3.65;;;20.50;57.70;;;;;;5083364;28;20036;-62
2023/10/14 06:00:29;;;;;;;9.57;3.85;;;20.50;57.60;;;;;;5084106;28;20099;-62
2023/10/14 06:02:56;;;;;;;12.02;3.55;;;20.60;57.50;;;;;;5086494;28;20020;-63
2023/10/14 06:05:31;;;;;;;11.23;3.85;;;20.60;57.50;;;;;;5089833;28;20039;-61
2023/10/14 06:08:05;;;;;;;7.65;3.28;;;20.60;57.60;;;;;;5084989;28;20115;-62
2023/10/14 06:10:36;;;;;;;7.47;3.65;;;20.60;57.40;;;;;;5084452;28;20385;-61
2023/10/14 06:13:05;;;;;;;13.25;3.80;;;20.70;57.70;;;;;;5067625;28;20413;-63
2023/10/14 06:15:36;;;;;;;7.60;3.38;;;20.70;57.60;;;;;;5093641;28;20024;-62
2023/10/14 06:18:04;;;;;;;10.57;3.60;;;20.70;57.40;;;;;;5088557;28;20032;-61
2023/10/14 06:20:32;;;;;;;13.38;3.42;;;20.70;57.40;;;;;;5090098;28;20365;-63
2023/10/14 06:22:59;;;;;;;9.05;3.42;;;20.70;57.40;;;;;;5084536;28;20081;-62
2023/10/14 06:25:26;;;;;;;8.05;3.80;;;20.70;57.60;;;;;;5089784;28;20404;-62
2023/10/14 06:27:53;;;;;;;10.88;3.63;;;20.70;57.60;;;;;;5092971;28;20047;-61
2023/10/14 06:30:20;;;;;;;14.32;3.72;;;20.70;57.70;;;;;;5065923;28;20043;-63
2023/10/14 06:32:47;;;;;;;13.07;3.45;;;20.60;57.70;;;;;;5083876;28;20386;-62
2023/10/14 06:35:17;;;;;;;7.38;3.67;;;20.60;57.80;;;;;;5083811;28;20032;-62
2023/10/14 06:37:47;;;;;;;10.30;4.13;;;20.60;58.00;;;;;;5085292;28;20055;-63
2023/10/14 06:40:18;;;;;;;7.38;3.70;;;20.60;58.00;;;;;;5089439;28;20020;-63
2023/10/14 06:42:48;;;;;;;6.57;3.50;;;20.50;58.30;;;;;;5090310;28;20078;-62
2023/10/14 06:45:17;;;;;;;5.70;3.30;;;20.50;58.20;;;;;;5088444;28;20043;-63
2023/10/14 06:47:50;;;;;;;10.75;4.13;;;20.50;58.30;;;;;;4983422;28;20060;-63
2023/10/14 06:50:23;;;;;;;9.73;4.00;;;20.40;58.30;;;;;;5083336;28;20581;-62
2023/10/14 06:52:53;;;;;;;8.77;4.43;;;20.50;58.60;;;;;;5084820;28;20378;-64
2023/10/14 06:55:22;;;;;;;9.05;3.97;;;20.50;58.50;;;;;;5092890;28;20093;-63
2023/10/14 06:57:53;;;;;;;10.85;4.07;;;20.40;58.50;;;;;;5091896;28;20028;-62
2023/10/14 07:00:30;;;;;;;10.70;3.50;;;20.50;58.80;;;;;;5084177;28;20028;-63
2023/10/14 07:02:59;;;;;;;21.70;4.10;;;20.50;58.60;;;;;;5082382;28;20036;-63
2023/10/14 07:05:27;;;;;;;7.85;4.18;;;20.50;58.60;;;;;;5091462;28;20081;-64
2023/10/14 07:07:53;;;;;;;8.98;3.78;;;20.50;58.80;;;;;;5088603;28;20486;-62
2023/10/14 07:10:27;;;;;;;14.65;4.10;;;20.50;58.90;;;;;;5083723;28;20046;-63
2023/10/14 07:12:57;;;;;;;7.40;3.30;;;20.50;59.20;;;;;;5068152;28;20032;-63
2023/10/14 07:15:24;;;;;;;12.65;3.58;;;20.50;59.40;;;;;;5088382;28;20024;-62
2023/10/14 07:17:49;;;;;;;9.02;4.00;;;20.50;59.30;;;;;;5082824;28;20028;-62
2023/10/14 07:20:15;;;;;;;9.68;4.07;;;20.50;59.60;;;;;;5089132;28;20035;-63
2023/10/14 07:22:42;;;;;;;6.50;3.28;;;20.50;59.60;;;;;;5093625;28;20740;-63
2023/10/14 07:25:09;;;;;;;12.35;3.97;;;20.50;59.90;;;;;;5089116;28;20139;-63
2023/10/14 07:27:38;;;;;;;8.93;3.72;;;20.40;60.20;;;;;;5092701;28;20460;-61
2023/10/14 07:30:14;;;;;;;13.85;3.85;;;20.40;60.30;;;;;;5088442;28;20036;-62
2023/10/14 07:32:44;;;;;;;7.60;3.13;;;20.40;60.00;;;;;;5083497;28;20604;-62
2023/10/14 07:35:13;;;;;;;10.02;3.25;;;20.40;60.70;;;;;;5088568;28;20081;-62
2023/10/14 07:37:45;;;;;;;7.25;3.80;;;20.30;60.50;;;;;;5083819;28;20020;-63
2023/10/14 07:40:22;;;;;;;8.13;3.50;;;20.30;61.20;;;;;;5089148;28;20024;-63
2023/10/14 07:43:08;;;;;;;7.57;2.92;;;20.30;61.20;;;;;;5086767;28;20034;-63
2023/10/14 07:45:46;;;;;;;9.38;3.40;;;20.30;62.10;;;;;;5089924;28;20470;-64
2023/10/14 07:48:13;;;;;;;6.80;3.25;;;20.30;62.60;;;;;;5089073;28;20027;-63
2023/10/14 07:50:41;;;;;;;10.93;4.10;;;20.40;61.70;;;;;;5090071;28;20024;-63
2023/10/14 07:53:08;;;;;;;9.20;4.03;;;20.40;61.50;;;;;;5087109;28;20182;-62
2023/10/14 07:55:44;;;;;;;9.27;4.00;;;20.50;61.60;;;;;;5089713;28;20059;-61
2023/10/14 07:58:11;;;;;;;7.50;3.60;;;20.50;62.40;;;;;;5091077;28;20022;-61
2023/10/14 08:00:48;;;;;;;7.10;3.60;;;20.50;61.80;;;;;;5088228;28;20044;-62
2023/10/14 08:03:17;;;;;;;10.38;3.75;;;20.50;62.40;;;;;;5087989;28;20024;-63
2023/10/14 08:05:52;;;;;;;7.22;3.80;;;20.50;61.60;;;;;;5090352;28;20043;-62
2023/10/14 08:08:19;;;;;;;9.57;3.45;;;20.60;62.00;;;;;;5088270;28;20011;-62
2023/10/14 08:10:51;;;;;;;9.80;3.33;;;20.60;61.60;;;;;;5092274;28;20032;-63
2023/10/14 08:13:24;;;;;;;12.95;3.35;;;20.60;61.80;;;;;;5091012;28;20024;-62
2023/10/14 08:15:51;;;;;;;9.07;3.70;;;20.60;61.20;;;;;;5087683;28;20020;-63
2023/10/14 08:18:23;;;;;;;6.90;3.53;;;20.60;61.30;;;;;;5090304;28;20361;-62
2023/10/14 08:20:53;;;;;;;7.25;3.70;;;20.60;61.90;;;;;;5087812;28;20051;-62
2023/10/14 08:23:20;;;;;;;11.45;3.60;;;20.60;61.50;;;;;;5094531;28;20027;-62
2023/10/14 08:25:47;;;;;;;6.90;3.75;;;20.60;61.50;;;;;;5089432;28;20048;-63
2023/10/14 08:28:13;;;;;;;7.87;3.97;;;20.60;61.60;;;;;;5089309;28;20396;-62
2023/10/14 08:30:45;;;;;;;8.70;3.92;;;20.70;62.20;;;;;;5088691;28;20241;-62
2023/10/14 08:33:15;;;;;;;9.25;3.47;;;20.60;61.40;;;;;;5084218;28;20028;-62
2023/10/14 08:35:42;;;;;;;10.18;3.90;;;20.70;61.60;;;;;;5091158;28;20147;-63
2023/10/14 08:38:19;;;;;;;9.02;3.33;;;20.70;61.60;;;;;;5088881;28;20038;-62
2023/10/14 08:40:46;;;;;;;13.10;3.50;;;20.70;61.60;;;;;;5070674;28;20127;-61
2023/10/14 08:43:18;;;;;;;7.82;3.45;;;20.70;61.60;;;;;;5088110;28;20028;-62
2023/10/14 08:45:48;;;;;;;8.98;3.60;;;20.80;61.90;;;;;;5038916;28;20024;-62
2023/10/14 08:48:16;;;;;;;13.77;4.10;;;20.90;62.00;;;;;;5087073;28;20023;-62
2023/10/14 08:50:45;;;;;;;7.72;3.78;;;21.00;62.40;;;;;;5085732;28;20016;-63
2023/10/14 08:53:12;;;;;;;8.68;3.40;;;21.20;61.90;;;;;;5085545;28;20073;-62
2023/10/14 08:55:40;;;;;;;8.13;3.85;;;21.30;61.20;;;;;;5089764;28;20031;-63
2023/10/14 08:58:07;;;;;;;9.68;4.15;;;21.40;60.50;;;;;;5085008;28;20119;-62
2023/10/14 09:00:36;;;;;;;10.07;4.00;;;21.50;60.00;;;;;;5087058;28;20028;-63
2023/10/14 09:03:06;;;;;;;7.18;3.28;;;21.50;59.90;;;;;;5091137;28;20024;-63
2023/10/14 09:05:45;;;;;;;11.90;3.50;;;21.50;59.50;;;;;;5092070;28;20038;-62
2023/10/14 09:08:14;;;;;;;9.20;3.53;;;21.60;59.70;;;;;;5087047;28;20482;-63
2023/10/14 09:10:40;;;;;;;8.07;3.63;;;21.60;59.90;;;;;;5088138;28;20077;-62
2023/10/14 09:13:08;;;;;;;9.88;3.28;;;21.70;60.10;;;;;;5091707;28;20528;-62
2023/10/14 09:15:38;;;;;;;9.00;3.35;;;21.90;59.90;;;;;;5088455;28;20076;-62
2023/10/14 09:18:17;;;;;;;8.57;3.35;;;22.10;59.90;;;;;;5083463;28;20066;-62
2023/10/14 09:20:44;;;;;;;8.32;3.17;;;22.20;59.20;;;;;;5088674;28;20028;-62
2023/10/14 09:23:14;;;;;;;6.38;3.20;;;22.30;58.90;;;;;;5065072;28;20044;-61
2023/10/14 09:25:45;;;;;;;8.63;3.58;;;22.40;58.30;;;;;;5070188;28;20044;-62
2023/10/14 09:28:16;;;;;;;8.18;3.63;;;22.50;57.80;;;;;;5085645;28;20020;-63
2023/10/14 09:30:49;;;;;;;7.60;3.15;;;22.50;57.50;;;;;;5085936;28;20497;-64
2023/10/14 09:33:18;;;;;;;9.68;3.33;;;22.50;57.50;;;;;;5082828;28;20032;-63
2023/10/14 09:35:50;;;;;;;10.07;3.33;;;22.50;57.30;;;;;;5088438;28;20019;-62
2023/10/14 09:38:24;;;;;;;7.35;3.00;;;22.50;57.10;;;;;;5087388;28;20077;-63
2023/10/14 09:40:57;;;;;;;7.22;3.20;;;22.50;56.90;;;;;;5071079;28;20059;-63
2023/10/14 09:43:27;;;;;;;9.60;2.97;;;22.50;56.80;;;;;;5091701;28;20081;-63
2023/10/14 09:45:57;;;;;;;9.57;3.13;;;22.50;56.60;;;;;;5009395;28;20265;-61
2023/10/14 09:48:34;;;;;;;4.40;2.25;;;22.50;56.60;;;;;;5090282;28;20104;-63
2023/10/14 09:51:02;;;;;;;9.02;3.97;;;22.50;57.20;;;;;;5079958;28;20024;-62
2023/10/14 09:53:29;;;;;;;6.88;2.17;;;22.60;56.60;;;;;;5089475;28;20478;-62
2023/10/14 09:56:07;;;;;;;8.00;2.58;;;22.60;55.60;;;;;;5093819;28;20408;-62
2023/10/14 09:58:41;;;;;;;5.15;2.17;;;22.70;54.80;;;;;;5090551;28;20106;-63
2023/10/14 10:01:17;;;;;;;3.58;1.98;;;22.70;54.80;;;;;;5092948;28;20020;-63
2023/10/14 10:04:03;;;;;;;5.07;2.33;;;22.70;54.80;;;;;;5086056;28;20032;-63
2023/10/14 10:06:46;;;;;;;5.90;1.50;;;22.70;54.60;;;;;;5086022;28;20028;-62
2023/10/14 10:09:23;;;;;;;5.63;1.83;;;22.70;54.20;;;;;;5086031;28;20419;-62
2023/10/14 10:11:51;;;;;;;6.60;1.50;;;22.80;53.50;;;;;;5087426;28;20572;-63
2023/10/14 10:14:20;;;;;;;2.50;1.30;;;22.80;53.40;;;;;;5090826;28;20028;-62
2023/10/14 10:16:50;;;;;;;4.28;1.70;;;22.80;53.30;;;;;;5092120;28;20043;-63
2023/10/14 10:19:16;;;;;;;3.55;1.50;;;22.80;52.90;;;;;;5086649;28;20024;-62
2023/10/14 10:22:12;;;;;;;4.80;1.30;;;22.70;53.10;;;;;;5087862;28;20181;-63
2023/10/14 10:24:41;;;;;;;2.60;1.30;;;22.70;52.90;;;;;;5088109;28;20043;-63
2023/10/14 10:27:11;;;;;;;4.78;1.70;;;22.80;53.60;;;;;;5091791;28;20027;-62
2023/10/14 10:29:50;;;;;;;6.28;2.53;;;22.80;53.10;;;;;;5092991;28;20036;-63
2023/10/14 10:32:23;;;;;;;3.85;2.05;;;22.80;52.80;;;;;;5086615;28;20418;-63
2023/10/14 10:35:05;;;;;;;3.13;1.30;;;22.90;52.30;;;;;;5090529;28;20486;-63
2023/10/14 10:37:35;;;;;;;6.07;1.38;;;22.90;52.40;;;;;;5090726;28;20050;-64
2023/10/14 10:40:05;;;;;;;4.25;1.63;;;22.90;52.30;;;;;;5100484;28;20032;-63
2023/10/14 10:42:31;;;;;;;3.55;1.33;;;22.90;52.40;;;;;;5085009;28;20497;-63
2023/10/14 10:45:00;;;;;;;2.10;1.38;;;22.90;52.50;;;;;;5083037;28;20035;-64
2023/10/14 10:47:31;;;;;;;1.27;0.90;;;22.80;52.50;;;;;;5086416;28;20480;-64
2023/10/14 10:50:01;;;;;;;2.00;1.00;;;22.80;52.80;;;;;;5090726;28;20717;-63
2023/10/14 10:52:28;;;;;;;0.52;0.40;;;22.60;52.80;;;;;;5089203;28;20134;-62
2023/10/14 10:54:56;;;;;;;0.30;0.30;;;22.40;53.00;;;;;;5093345;28;20454;-63
2023/10/14 10:57:22;;;;;;;0.63;0.40;;;22.20;53.40;;;;;;5094155;28;20032;-63
2023/10/14 10:59:47;;;;;;;1.13;0.40;;;22.00;53.80;;;;;;5092674;28;20028;-62
2023/10/14 11:02:15;;;;;;;2.85;0.30;;;21.80;54.40;;;;;;5093925;28;20032;-64
2023/10/14 11:04:42;;;;;;;0.40;0.40;;;21.60;54.60;;;;;;5086697;28;20055;-62
2023/10/14 11:07:10;;;;;;;0.30;0.30;;;21.30;55.10;;;;;;5095435;28;20919;-63
2023/10/14 11:09:39;;;;;;;0.20;0.20;;;21.20;55.80;;;;;;5092784;28;20412;-63
2023/10/14 11:12:09;;;;;;;0.30;0.30;;;21.00;56.10;;;;;;5089861;28;20472;-63
2023/10/14 11:14:35;;;;;;;0.63;0.40;;;20.80;56.50;;;;;;5086940;28;20028;-63
2023/10/14 11:17:01;;;;;;;0.20;0.20;;;20.70;56.70;;;;;;5087617;28;20080;-63
2023/10/14 11:19:30;;;;;;;0.40;0.30;;;20.50;56.70;;;;;;5085659;28;20543;-63
2023/10/14 11:21:59;;;;;;;0.30;0.30;;;20.30;56.80;;;;;;5069770;28;20124;-63
2023/10/14 11:24:30;;;;;;;0.20;0.20;;;20.10;57.20;;;;;;5087958;28;20454;-62
2023/10/14 11:26:57;;;;;;;1.20;0.43;;;19.90;57.70;;;;;;5090468;28;20051;-64
2023/10/14 11:29:27;;;;;;;0.55;0.30;;;19.80;58.00;;;;;;5090613;28;20110;-63
2023/10/14 11:31:57;;;;;;;0.30;0.30;;;19.60;58.60;;;;;;5082521;28;20390;-62
2023/10/14 11:34:23;;;;;;;0.40;0.32;;;19.50;58.50;;;;;;5059658;28;20040;-62
2023/10/14 11:36:49;;;;;;;0.80;0.40;;;19.30;59.20;;;;;;5065916;28;20054;-63
2023/10/14 11:39:21;;;;;;;0.52;0.32;;;19.40;59.10;;;;;;5065096;28;20505;-63
2023/10/14 11:41:50;;;;;;;0.70;0.28;;;19.00;59.70;;;;;;5066999;28;20567;-62
2023/10/14 11:44:19;;;;;;;0.98;0.55;;;19.00;60.30;;;;;;5067441;28;20030;-62
2023/10/14 11:46:45;;;;;;;1.23;0.30;;;18.90;61.00;;;;;;5084474;28;20530;-63
2023/10/14 11:49:12;;;;;;;0.85;0.30;;;18.90;61.10;;;;;;5092650;28;20032;-63
2023/10/14 11:51:42;;;;;;;3.33;1.27;;;18.90;61.00;;;;;;5095862;28;20023;-63
2023/10/14 11:54:11;;;;;;;1.20;0.60;;;18.90;61.40;;;;;;5084678;28;20032;-63
2023/10/14 11:56:40;;;;;;;1.58;0.70;;;18.80;60.90;;;;;;5086777;28;20034;-65
2023/10/14 11:59:06;;;;;;;1.27;0.50;;;18.80;61.30;;;;;;5092352;28;20413;-64
2023/10/14 12:01:35;;;;;;;0.90;0.55;;;18.80;62.00;;;;;;5089487;28;20085;-63
2023/10/14 12:04:05;;;;;;;1.60;0.90;;;18.80;62.60;;;;;;5089189;28;20032;-64
2023/10/14 12:06:34;;;;;;;1.08;0.50;;;18.80;63.00;;;;;;5087711;28;20745;-64
2023/10/14 12:09:05;;;;;;;0.60;0.40;;;18.80;62.60;;;;;;5086705;28;20039;-65
2023/10/14 12:11:41;;;;;;;0.60;0.40;;;18.80;62.60;;;;;;5091465;28;20489;-62
2023/10/14 12:14:16;;;;;;;0.28;0.28;;;18.80;62.50;;;;;;5062792;28;20028;-63
2023/10/14 12:16:42;;;;;;;3.10;0.38;;;18.70;62.50;;;;;;5088926;28;20371;-64
2023/10/14 12:19:11;;;;;;;1.10;0.52;;;18.70;62.40;;;;;;5101746;27;20450;-64
2023/10/14 12:21:38;;;;;;;1.75;0.63;;;18.70;62.70;;;;;;5085936;28;20489;-63
2023/10/14 12:24:04;;;;;;;0.93;0.50;;;18.60;63.00;;;;;;5085630;28;20044;-64
2023/10/14 12:26:33;;;;;;;1.88;0.80;;;18.50;63.60;;;;;;5083407;28;20557;-66
2023/10/14 12:28:59;;;;;;;1.10;0.60;;;18.50;64.30;;;;;;5086359;28;20076;-65
2023/10/14 12:31:27;;;;;;;1.05;0.50;;;18.50;64.10;;;;;;5090657;28;20370;-65
2023/10/14 12:33:54;;;;;;;1.92;0.38;;;18.50;64.30;;;;;;5090701;28;20114;-63
2023/10/14 12:36:22;;;;;;;3.15;0.60;;;18.50;64.10;;;;;;5088690;28;20478;-64
2023/10/14 12:38:48;;;;;;;0.80;0.40;;;18.40;64.10;;;;;;5088198;28;20039;-64
2023/10/14 12:41:14;;;;;;;0.70;0.38;;;18.50;64.60;;;;;;5087043;28;20388;-64
2023/10/14 12:43:40;;;;;;;1.27;0.50;;;18.40;64.80;;;;;;5090603;28;20027;-64
2023/10/14 12:46:12;;;;;;;0.82;0.60;;;18.50;64.90;;;;;;5034771;28;20107;-62
2023/10/14 12:48:39;;;;;;;2.50;0.88;;;18.50;64.90;;;;;;5088825;28;20024;-64
2023/10/14 12:51:08;;;;;;;1.23;0.60;;;18.50;64.50;;;;;;5083169;28;20024;-63
2023/10/14 12:53:33;;;;;;;1.27;0.38;;;18.50;64.80;;;;;;5083351;28;20012;-63
2023/10/14 12:55:59;;;;;;;0.73;0.30;;;18.50;65.40;;;;;;5091703;28;20465;-64
2023/10/14 12:58:25;;;;;;;0.63;0.35;;;18.50;65.10;;;;;;5085432;28;20074;-65
2023/10/14 13:00:51;;;;;;;0.82;0.47;;;18.60;65.50;;;;;;5083006;28;20032;-62
2023/10/14 13:03:17;;;;;;;2.63;0.63;;;18.70;65.70;;;;;;5085228;28;20056;-63
2023/10/14 13:05:46;;;;;;;0.70;0.50;;;18.70;65.50;;;;;;5085619;28;20540;-62
2023/10/14 13:08:18;;;;;;;2.60;1.17;;;18.80;65.70;;;;;;5087225;28;20036;-62
2023/10/14 13:10:44;;;;;;;1.77;1.10;;;18.90;64.90;;;;;;5083700;28;20130;-65
2023/10/14 13:13:12;;;;;;;1.30;0.63;;;18.90;64.60;;;;;;5084476;28;20118;-64
2023/10/14 13:15:37;;;;;;;0.77;0.40;;;18.90;64.30;;;;;;5077286;28;20032;-64
2023/10/14 13:18:12;;;;;;;0.73;0.38;;;18.90;64.50;;;;;;5085656;28;20032;-63
2023/10/14 13:20:38;;;;;;;0.30;0.30;;;18.90;64.40;;;;;;5085093;28;20023;-62
2023/10/14 13:23:09;;;;;;;1.08;0.45;;;19.00;64.70;;;;;;5086722;28;20186;-62
2023/10/14 13:25:36;;;;;;;0.40;0.40;;;18.90;65.10;;;;;;5088924;28;20040;-63
2023/10/14 13:28:08;;;;;;;1.10;0.60;;;18.80;64.60;;;;;;5087151;28;20032;-63